createdAt,value
2017-07-01T00:00:01.468Z,0
2017-07-01T00:00:41.927Z,0
2017-07-01T00:01:22.401Z,0
2017-07-01T00:02:02.837Z,0
2017-07-01T00:02:43.291Z,0
2017-07-01T00:03:23.756Z,0
2017-07-01T00:04:04.215Z,0
2017-07-01T00:04:44.667Z,0
2017-07-01T00:05:25.119Z,0
2017-07-01T00:06:05.602Z,0
2017-07-01T00:06:46.067Z,0
2017-07-01T00:07:26.510Z,0
2017-07-01T00:08:06.969Z,0
2017-07-01T00:08:47.428Z,0
2017-07-01T00:09:27.884Z,0
2017-07-01T00:10:08.342Z,0
2017-07-01T00:10:48.817Z,0
2017-07-01T00:11:29.270Z,0
2017-07-01T00:12:09.732Z,0
2017-07-01T00:12:50.224Z,0
2017-07-01T00:13:30.679Z,0
2017-07-01T00:14:11.137Z,0
2017-07-01T00:14:51.600Z,0
2017-07-01T00:15:32.058Z,0
2017-07-01T00:16:12.515Z,0
2017-07-01T00:16:52.972Z,0
2017-07-01T00:17:33.430Z,0
2017-07-01T00:18:13.893Z,0
2017-07-01T00:18:54.350Z,0
2017-07-01T00:19:34.808Z,0
2017-07-01T00:20:15.276Z,0
2017-07-01T00:20:55.729Z,0
2017-07-01T00:21:36.191Z,0
2017-07-01T00:22:16.650Z,0
2017-07-01T00:22:57.108Z,0
2017-07-01T00:23:37.559Z,0
2017-07-01T00:24:18.013Z,0
2017-07-01T00:24:58.465Z,0
2017-07-01T00:25:38.986Z,0
2017-07-01T00:26:19.447Z,0
2017-07-01T00:26:59.953Z,0
2017-07-01T00:27:40.385Z,0
2017-07-01T00:28:20.843Z,0
2017-07-01T00:29:01.296Z,0
2017-07-01T00:29:41.753Z,0
2017-07-01T00:30:22.211Z,0
2017-07-01T00:31:02.663Z,0
2017-07-01T00:31:43.113Z,0
2017-07-01T00:32:23.571Z,0
2017-07-01T00:33:04.027Z,0
2017-07-01T00:33:44.487Z,0
2017-07-01T00:34:24.939Z,0
2017-07-01T00:35:05.388Z,0
2017-07-01T00:35:45.828Z,0
2017-07-01T00:36:26.288Z,0
2017-07-01T00:37:06.751Z,0
2017-07-01T00:37:47.206Z,0
2017-07-01T00:38:27.652Z,0
2017-07-01T00:39:08.109Z,0
2017-07-01T00:39:48.560Z,0
2017-07-01T00:40:29.019Z,0
2017-07-01T00:41:09.487Z,0
2017-07-01T00:41:49.941Z,0
2017-07-01T00:42:30.397Z,0
2017-07-01T00:43:10.846Z,0
2017-07-01T00:43:51.315Z,0
2017-07-01T00:44:31.768Z,0
2017-07-01T00:45:12.231Z,0
2017-07-01T00:45:52.687Z,0
2017-07-01T00:46:33.135Z,0
2017-07-01T00:47:13.587Z,0
2017-07-01T00:47:54.041Z,0
2017-07-01T00:48:34.491Z,0
2017-07-01T00:49:14.944Z,0
2017-07-01T00:49:55.388Z,0
2017-07-01T00:50:35.845Z,0
2017-07-01T00:51:16.301Z,0
2017-07-01T00:51:56.760Z,0
2017-07-01T00:52:37.211Z,0
2017-07-01T00:53:17.669Z,0
2017-07-01T00:53:58.123Z,0
2017-07-01T00:54:38.582Z,0
2017-07-01T00:55:19.040Z,0
2017-07-01T00:55:59.488Z,0
2017-07-01T00:56:39.954Z,0
2017-07-01T00:57:20.404Z,0
2017-07-01T00:58:00.864Z,0
2017-07-01T00:58:41.312Z,0
2017-07-01T00:59:21.763Z,0
2017-07-01T01:00:02.225Z,0
2017-07-01T01:00:42.679Z,0
2017-07-01T01:01:23.132Z,0
2017-07-01T01:02:03.596Z,0
2017-07-01T01:02:44.061Z,0
2017-07-01T01:03:24.520Z,0
2017-07-01T01:04:04.987Z,0
2017-07-01T01:04:45.434Z,0
2017-07-01T01:05:25.900Z,0
2017-07-01T01:06:06.360Z,0
2017-07-01T01:06:46.817Z,0
2017-07-01T01:07:27.266Z,0
2017-07-01T01:08:07.721Z,0
2017-07-01T01:08:48.179Z,0
2017-07-01T01:09:28.638Z,0
2017-07-01T01:10:09.110Z,0
2017-07-01T01:10:49.526Z,0
2017-07-01T01:13:07.423Z,0
2017-07-01T01:13:47.882Z,0
2017-07-01T01:14:28.379Z,0
2017-07-01T01:15:08.784Z,0
2017-07-01T01:15:49.231Z,0
2017-07-01T01:16:29.681Z,0
2017-07-01T01:17:10.137Z,0
2017-07-01T01:17:50.589Z,0
2017-07-01T01:18:31.043Z,0
2017-07-01T01:19:11.498Z,0
2017-07-01T01:19:51.957Z,0
2017-07-01T01:20:32.410Z,0
2017-07-01T01:21:12.867Z,0
2017-07-01T01:21:53.314Z,0
2017-07-01T01:22:33.772Z,0
2017-07-01T01:23:14.222Z,0
2017-07-01T01:23:54.678Z,0
2017-07-01T01:24:35.128Z,0
2017-07-01T01:25:15.590Z,0
2017-07-01T01:25:56.048Z,0
2017-07-01T01:26:36.511Z,0
2017-07-01T01:27:16.967Z,0
2017-07-01T01:27:57.418Z,0
2017-07-01T01:28:37.866Z,0
2017-07-01T01:29:18.348Z,0
2017-07-01T01:29:58.806Z,0
2017-07-01T01:30:39.252Z,0
2017-07-01T01:31:19.707Z,0
2017-07-01T01:32:00.160Z,0
2017-07-01T01:32:40.611Z,0
2017-07-01T01:33:21.071Z,0
2017-07-01T01:34:01.525Z,0
2017-07-01T01:34:41.986Z,0
2017-07-01T01:35:22.439Z,0
2017-07-01T01:36:02.887Z,0
2017-07-01T01:36:43.339Z,0
2017-07-01T01:37:23.789Z,0
2017-07-01T01:38:04.241Z,0
2017-07-01T01:38:44.691Z,0
2017-07-01T01:39:25.149Z,0
2017-07-01T01:40:05.613Z,0
2017-07-01T01:40:46.071Z,0
2017-07-01T01:41:26.535Z,0
2017-07-01T01:42:06.992Z,0
2017-07-01T01:42:47.434Z,0
2017-07-01T01:43:27.905Z,0
2017-07-01T01:44:08.350Z,0
2017-07-01T01:44:48.811Z,0
2017-07-01T01:45:29.261Z,0
2017-07-01T01:46:09.722Z,0
2017-07-01T01:46:50.177Z,0
2017-07-01T01:47:30.635Z,0
2017-07-01T01:48:11.093Z,0
2017-07-01T01:48:51.560Z,0
2017-07-01T01:49:32.004Z,0
2017-07-01T01:50:12.453Z,0
2017-07-01T01:50:52.900Z,0
2017-07-01T01:51:33.355Z,0
2017-07-01T01:52:13.808Z,0
2017-07-01T01:52:54.277Z,0
2017-07-01T01:53:34.724Z,0
2017-07-01T01:54:15.179Z,0
2017-07-01T01:54:55.627Z,0
2017-07-01T01:55:36.082Z,0
2017-07-01T01:56:16.538Z,0
2017-07-01T01:56:56.986Z,0
2017-07-01T01:57:37.440Z,0
2017-07-01T01:58:17.889Z,0
2017-07-01T01:58:58.348Z,0
2017-07-01T01:59:38.801Z,0
2017-07-01T02:00:19.252Z,0
2017-07-01T02:00:59.708Z,0
2017-07-01T02:01:40.163Z,0
2017-07-01T02:02:20.611Z,0
2017-07-01T02:03:01.067Z,0
2017-07-01T02:03:41.516Z,0
2017-07-01T02:04:21.970Z,0
2017-07-01T02:05:02.422Z,0
2017-07-01T02:05:42.873Z,0
2017-07-01T02:06:23.334Z,0
2017-07-01T02:07:03.794Z,0
2017-07-01T02:07:44.247Z,0
2017-07-01T02:08:24.693Z,0
2017-07-01T02:09:05.149Z,0
2017-07-01T02:09:45.607Z,0
2017-07-01T02:10:26.061Z,0
2017-07-01T02:11:06.510Z,0
2017-07-01T02:11:46.965Z,0
2017-07-01T02:12:27.412Z,0
2017-07-01T02:13:07.867Z,0
2017-07-01T02:13:48.323Z,0
2017-07-01T02:14:28.793Z,0
2017-07-01T02:15:09.241Z,0
2017-07-01T02:15:49.695Z,0
2017-07-01T02:16:30.151Z,0
2017-07-01T02:17:10.604Z,0
2017-07-01T02:17:51.061Z,0
2017-07-01T02:18:31.525Z,0
2017-07-01T02:19:11.974Z,0
2017-07-01T02:19:52.434Z,0
2017-07-01T02:20:32.886Z,0
2017-07-01T02:21:13.338Z,0
2017-07-01T02:21:53.789Z,0
2017-07-01T02:22:34.239Z,0
2017-07-01T02:23:14.693Z,0
2017-07-01T02:23:55.148Z,0
2017-07-01T02:24:35.606Z,0
2017-07-01T02:25:16.060Z,0
2017-07-01T02:25:56.512Z,0
2017-07-01T02:26:36.972Z,0
2017-07-01T02:27:17.430Z,0
2017-07-01T02:27:57.892Z,0
2017-07-01T02:28:38.344Z,0
2017-07-01T02:29:18.798Z,0
2017-07-01T02:29:59.263Z,0
2017-07-01T02:30:39.714Z,0
2017-07-01T02:31:20.168Z,0
2017-07-01T02:32:00.625Z,0
2017-07-01T02:32:41.096Z,0
2017-07-01T02:33:21.583Z,0
2017-07-01T02:34:02.059Z,0
2017-07-01T02:34:42.499Z,0
2017-07-01T02:35:22.953Z,0
2017-07-01T02:36:03.404Z,0
2017-07-01T02:36:43.863Z,0
2017-07-01T02:37:24.306Z,0
2017-07-01T02:38:04.763Z,0
2017-07-01T02:38:45.221Z,0
2017-07-01T02:39:25.677Z,0
2017-07-01T02:40:06.129Z,0
2017-07-01T02:40:46.583Z,0
2017-07-01T02:41:27.050Z,0
2017-07-01T02:42:07.503Z,0
2017-07-01T02:42:47.945Z,0
2017-07-01T02:43:28.443Z,0
2017-07-01T02:44:08.899Z,0
2017-07-01T02:44:49.351Z,0
2017-07-01T02:45:29.805Z,0
2017-07-01T02:46:10.252Z,0
2017-07-01T02:46:50.704Z,0
2017-07-01T02:47:31.158Z,0
2017-07-01T02:48:11.615Z,0
2017-07-01T02:48:52.058Z,0
2017-07-01T02:49:32.513Z,0
2017-07-01T02:50:12.969Z,0
2017-07-01T02:50:53.423Z,0
2017-07-01T02:51:33.878Z,0
2017-07-01T02:52:14.331Z,0
2017-07-01T02:52:54.785Z,0
2017-07-01T02:53:35.251Z,0
2017-07-01T02:54:15.706Z,0
2017-07-01T02:54:56.216Z,0
2017-07-01T02:55:36.664Z,0
2017-07-01T02:56:17.123Z,0
2017-07-01T02:56:57.582Z,0
2017-07-01T02:57:38.052Z,0
2017-07-01T02:58:18.513Z,0
2017-07-01T02:58:58.976Z,0
2017-07-01T02:59:39.427Z,0
2017-07-01T03:00:19.877Z,0
2017-07-01T03:01:00.331Z,0
2017-07-01T03:01:40.784Z,0
2017-07-01T03:02:21.241Z,0
2017-07-01T03:03:01.688Z,0
2017-07-01T03:03:42.144Z,0
2017-07-01T03:04:22.598Z,0
2017-07-01T03:05:03.059Z,0
2017-07-01T03:05:43.513Z,0
2017-07-01T03:06:23.971Z,0
2017-07-01T03:07:04.429Z,0
2017-07-01T03:07:44.890Z,0
2017-07-01T03:08:25.338Z,0
2017-07-01T03:09:05.796Z,0
2017-07-01T03:09:46.259Z,0
2017-07-01T03:10:26.720Z,0
2017-07-01T03:11:07.174Z,0
2017-07-01T03:11:47.626Z,0
2017-07-01T03:12:28.082Z,0
2017-07-01T03:13:08.536Z,0
2017-07-01T03:13:48.998Z,0
2017-07-01T03:14:29.462Z,0
2017-07-01T03:15:09.917Z,0
2017-07-01T03:15:50.370Z,0
2017-07-01T03:16:30.825Z,0
2017-07-01T03:17:11.279Z,0
2017-07-01T03:17:51.740Z,0
2017-07-01T03:18:32.185Z,0
2017-07-01T03:19:12.648Z,0
2017-07-01T03:19:53.105Z,0
2017-07-01T03:20:33.616Z,0
2017-07-01T03:21:14.058Z,0
2017-07-01T03:21:54.528Z,0
2017-07-01T03:22:34.970Z,0
2017-07-01T03:23:15.465Z,0
2017-07-01T03:23:55.874Z,0
2017-07-01T03:24:36.331Z,0
2017-07-01T03:25:16.774Z,0
2017-07-01T03:25:57.229Z,0
2017-07-01T03:26:37.684Z,0
2017-07-01T03:27:18.136Z,0
2017-07-01T03:27:58.593Z,0
2017-07-01T03:28:39.049Z,0
2017-07-01T03:29:19.511Z,0
2017-07-01T03:29:59.968Z,0
2017-07-01T03:30:40.409Z,0
2017-07-01T03:31:20.864Z,0
2017-07-01T03:32:01.318Z,0
2017-07-01T03:32:41.797Z,0
2017-07-01T03:33:22.244Z,0
2017-07-01T03:34:02.682Z,0
2017-07-01T03:34:43.121Z,0
2017-07-01T03:35:23.584Z,0
2017-07-01T03:36:04.034Z,0
2017-07-01T03:36:44.478Z,0
2017-07-01T03:37:24.938Z,0
2017-07-01T03:38:05.388Z,0
2017-07-01T03:38:45.844Z,0
2017-07-01T03:39:26.302Z,0
2017-07-01T03:40:06.768Z,0
2017-07-01T03:40:47.218Z,0
2017-07-01T03:41:27.670Z,0
2017-07-01T03:42:08.112Z,0
2017-07-01T03:42:48.560Z,0
2017-07-01T03:43:29.006Z,0
2017-07-01T03:44:09.461Z,4
2017-07-01T03:44:49.913Z,4
2017-07-01T03:45:30.381Z,4
2017-07-01T03:46:10.828Z,4
2017-07-01T03:46:51.309Z,4
2017-07-01T03:47:31.753Z,4
2017-07-01T03:48:12.206Z,0
2017-07-01T03:48:52.655Z,0
2017-07-01T03:49:33.105Z,0
2017-07-01T03:50:13.565Z,0
2017-07-01T03:50:53.995Z,0
2017-07-01T03:51:34.486Z,4
2017-07-01T03:52:14.891Z,4
2017-07-01T03:52:55.367Z,4
2017-07-01T03:53:35.814Z,4
2017-07-01T03:54:16.263Z,4
2017-07-01T03:54:56.711Z,4
2017-07-01T03:55:37.169Z,4
2017-07-01T03:56:17.632Z,4
2017-07-01T03:56:58.095Z,4
2017-07-01T03:57:38.544Z,4
2017-07-01T03:58:18.999Z,4
2017-07-01T03:58:59.476Z,4
2017-07-01T03:59:39.921Z,4
2017-07-01T04:00:20.382Z,4
2017-07-01T04:01:00.833Z,4
2017-07-01T04:01:41.306Z,4
2017-07-01T04:02:21.756Z,4
2017-07-01T04:03:02.212Z,4
2017-07-01T04:03:42.664Z,0
2017-07-01T04:04:23.117Z,4
2017-07-01T04:05:03.580Z,4
2017-07-01T04:05:44.043Z,4
2017-07-01T04:06:24.510Z,4
2017-07-01T04:07:04.960Z,4
2017-07-01T04:07:45.415Z,4
2017-07-01T04:08:25.861Z,4
2017-07-01T04:09:06.306Z,4
2017-07-01T04:09:46.758Z,4
2017-07-01T04:10:27.221Z,8
2017-07-01T04:11:07.671Z,4
2017-07-01T04:11:48.128Z,4
2017-07-01T04:12:28.586Z,4
2017-07-01T04:13:09.033Z,8
2017-07-01T04:13:49.497Z,8
2017-07-01T04:14:29.952Z,8
2017-07-01T04:15:10.402Z,8
2017-07-01T04:15:50.850Z,8
2017-07-01T04:16:31.304Z,8
2017-07-01T04:17:11.757Z,8
2017-07-01T04:17:52.213Z,8
2017-07-01T04:18:32.673Z,8
2017-07-01T04:19:13.113Z,4
2017-07-01T04:19:53.596Z,8
2017-07-01T04:20:34.048Z,8
2017-07-01T04:21:14.537Z,8
2017-07-01T04:21:54.989Z,8
2017-07-01T04:22:35.456Z,8
2017-07-01T04:23:15.918Z,8
2017-07-01T04:23:56.378Z,8
2017-07-01T04:26:24.548Z,8
2017-07-01T04:27:04.991Z,8
2017-07-01T04:27:45.444Z,8
2017-07-01T04:28:25.898Z,8
2017-07-01T04:29:06.351Z,8
2017-07-01T04:29:46.806Z,8
2017-07-01T04:30:27.267Z,8
2017-07-01T04:31:07.718Z,8
2017-07-01T04:31:48.159Z,8
2017-07-01T04:32:28.615Z,8
2017-07-01T04:33:09.056Z,8
2017-07-01T04:33:49.516Z,8
2017-07-01T04:34:29.964Z,8
2017-07-01T04:35:10.420Z,12
2017-07-01T04:35:50.868Z,12
2017-07-01T04:36:31.322Z,8
2017-07-01T04:37:11.785Z,8
2017-07-01T04:37:52.239Z,12
2017-07-01T04:38:32.691Z,12
2017-07-01T04:39:13.137Z,12
2017-07-01T04:39:53.596Z,12
2017-07-01T04:40:34.050Z,12
2017-07-01T04:41:14.499Z,12
2017-07-01T04:41:54.985Z,12
2017-07-01T04:42:35.437Z,12
2017-07-01T04:43:15.879Z,16
2017-07-01T04:45:13.803Z,16
2017-07-01T04:45:54.260Z,16
2017-07-01T04:46:34.706Z,16
2017-07-01T04:47:15.161Z,16
2017-07-01T04:47:55.626Z,20
2017-07-01T04:48:36.090Z,16
2017-07-01T04:49:16.544Z,16
2017-07-01T04:49:57.003Z,16
2017-07-01T04:50:37.459Z,16
2017-07-01T04:51:17.913Z,16
2017-07-01T04:51:58.373Z,16
2017-07-01T04:52:38.832Z,20
2017-07-01T04:53:19.285Z,16
2017-07-01T04:53:59.751Z,16
2017-07-01T04:54:40.197Z,16
2017-07-01T04:55:20.629Z,16
2017-07-01T04:56:01.075Z,12
2017-07-01T04:56:41.529Z,12
2017-07-01T04:57:21.977Z,12
2017-07-01T04:58:02.435Z,12
2017-07-01T04:58:42.884Z,12
2017-07-01T04:59:23.329Z,8
2017-07-01T05:00:03.778Z,8
2017-07-01T05:00:44.230Z,8
2017-07-01T05:01:24.690Z,8
2017-07-01T05:02:05.143Z,12
2017-07-01T05:02:45.589Z,12
2017-07-01T05:03:26.048Z,8
2017-07-01T05:04:06.510Z,8
2017-07-01T05:04:46.964Z,8
2017-07-01T05:05:27.417Z,12
2017-07-01T05:06:07.871Z,8
2017-07-01T05:06:48.329Z,8
2017-07-01T05:07:28.787Z,8
2017-07-01T05:08:09.244Z,8
2017-07-01T05:08:49.708Z,12
2017-07-01T05:09:30.165Z,12
2017-07-01T05:10:10.615Z,12
2017-07-01T05:10:51.075Z,8
2017-07-01T05:11:31.531Z,8
2017-07-01T05:12:11.989Z,8
2017-07-01T05:12:52.443Z,12
2017-07-01T05:13:32.901Z,12
2017-07-01T05:14:13.359Z,12
2017-07-01T05:14:53.813Z,12
2017-07-01T05:15:34.265Z,12
2017-07-01T05:16:14.727Z,16
2017-07-01T05:18:47.817Z,12
2017-07-01T05:19:28.268Z,12
2017-07-01T05:20:08.732Z,12
2017-07-01T05:20:49.185Z,12
2017-07-01T05:21:29.637Z,12
2017-07-01T05:22:10.093Z,12
2017-07-01T05:22:50.554Z,12
2017-07-01T05:23:30.998Z,8
2017-07-01T05:24:11.455Z,12
2017-07-01T05:24:51.912Z,12
2017-07-01T05:25:32.369Z,12
2017-07-01T05:26:12.829Z,16
2017-07-01T05:26:53.281Z,12
2017-07-01T05:27:33.737Z,16
2017-07-01T05:28:14.212Z,12
2017-07-01T05:28:54.676Z,16
2017-07-01T05:29:35.133Z,12
2017-07-01T05:30:15.587Z,16
2017-07-01T05:30:56.040Z,12
2017-07-01T05:31:36.496Z,12
2017-07-01T05:32:16.939Z,12
2017-07-01T05:32:57.395Z,12
2017-07-01T05:33:37.865Z,12
2017-07-01T05:34:18.323Z,12
2017-07-01T05:34:58.772Z,12
2017-07-01T05:35:39.235Z,12
2017-07-01T05:36:19.692Z,12
2017-07-01T05:37:00.150Z,12
2017-07-01T05:37:40.600Z,12
2017-07-01T05:38:21.045Z,12
2017-07-01T05:39:01.505Z,16
2017-07-01T05:39:41.974Z,12
2017-07-01T05:40:22.433Z,16
2017-07-01T05:41:02.893Z,16
2017-07-01T05:41:43.352Z,20
2017-07-01T05:42:23.808Z,16
2017-07-01T05:43:04.265Z,20
2017-07-01T05:43:44.725Z,20
2017-07-01T05:44:25.172Z,20
2017-07-01T05:45:05.626Z,20
2017-07-01T05:45:46.072Z,20
2017-07-01T05:46:26.525Z,20
2017-07-01T05:47:06.979Z,20
2017-07-01T05:47:47.430Z,16
2017-07-01T05:48:27.881Z,16
2017-07-01T05:49:08.341Z,16
2017-07-01T05:49:48.796Z,16
2017-07-01T05:50:29.257Z,20
2017-07-01T05:51:09.714Z,24
2017-07-01T05:51:50.189Z,20
2017-07-01T05:52:30.646Z,28
2017-07-01T05:53:11.094Z,28
2017-07-01T05:53:51.545Z,28
2017-07-01T05:54:32.005Z,28
2017-07-01T05:55:12.448Z,28
2017-07-01T05:55:52.911Z,28
2017-07-01T05:56:33.373Z,28
2017-07-01T05:57:13.824Z,32
2017-07-01T05:57:54.279Z,28
2017-07-01T05:58:34.733Z,28
2017-07-01T05:59:15.198Z,28
2017-07-01T05:59:55.650Z,32
2017-07-01T06:00:36.107Z,32
2017-07-01T06:01:16.564Z,32
2017-07-01T06:01:57.011Z,28
2017-07-01T06:02:37.469Z,32
2017-07-01T06:03:17.927Z,28
2017-07-01T06:03:58.383Z,32
2017-07-01T06:04:38.834Z,28
2017-07-01T06:05:19.291Z,28
2017-07-01T06:05:59.748Z,28
2017-07-01T06:06:40.202Z,28
2017-07-01T06:07:20.658Z,28
2017-07-01T06:08:01.123Z,24
2017-07-01T06:08:41.591Z,24
2017-07-01T06:09:22.056Z,24
2017-07-01T06:10:02.509Z,20
2017-07-01T06:10:42.968Z,24
2017-07-01T06:11:23.424Z,24
2017-07-01T06:12:03.886Z,20
2017-07-01T06:12:44.328Z,20
2017-07-01T06:13:24.793Z,20
2017-07-01T06:14:05.242Z,20
2017-07-01T06:14:45.696Z,24
2017-07-01T06:15:26.145Z,24
2017-07-01T06:16:06.603Z,24
2017-07-01T06:16:47.075Z,28
2017-07-01T06:17:27.517Z,28
2017-07-01T06:18:07.972Z,28
2017-07-01T06:18:48.433Z,32
2017-07-01T06:19:28.882Z,24
2017-07-01T06:20:09.333Z,24
2017-07-01T06:20:49.798Z,28
2017-07-01T06:21:30.241Z,32
2017-07-01T06:22:10.691Z,32
2017-07-01T06:22:51.147Z,28
2017-07-01T06:23:31.597Z,28
2017-07-01T06:24:12.045Z,28
2017-07-01T06:24:52.496Z,32
2017-07-01T06:25:32.949Z,40
2017-07-01T06:26:13.399Z,40
2017-07-01T06:26:53.852Z,36
2017-07-01T06:27:34.321Z,36
2017-07-01T06:30:02.509Z,28
2017-07-01T06:30:42.941Z,28
2017-07-01T06:31:23.398Z,28
2017-07-01T06:32:03.867Z,24
2017-07-01T06:32:44.329Z,24
2017-07-01T06:33:24.785Z,40
2017-07-01T06:34:05.252Z,52
2017-07-01T06:34:45.702Z,52
2017-07-01T06:35:26.172Z,48
2017-07-01T06:36:06.799Z,48
2017-07-01T06:36:47.273Z,40
2017-07-01T06:37:27.740Z,24
2017-07-01T06:38:08.222Z,24
2017-07-01T06:38:48.601Z,16
2017-07-01T06:39:29.029Z,16
2017-07-01T06:40:09.396Z,12
2017-07-01T06:40:49.845Z,12
2017-07-01T06:41:30.295Z,12
2017-07-01T06:42:10.718Z,12
2017-07-01T06:42:51.055Z,12
2017-07-01T06:43:31.453Z,12
2017-07-01T06:44:11.926Z,12
2017-07-01T06:44:52.315Z,12
2017-07-01T06:45:32.764Z,12
2017-07-01T06:46:13.195Z,16
2017-07-01T06:46:53.612Z,16
2017-07-01T06:47:34.037Z,20
2017-07-01T06:48:14.434Z,20
2017-07-01T06:48:54.859Z,16
2017-07-01T06:49:35.273Z,16
2017-07-01T06:50:15.693Z,16
2017-07-01T06:50:56.205Z,20
2017-07-01T06:51:36.591Z,20
2017-07-01T06:52:17.038Z,28
2017-07-01T06:52:57.466Z,28
2017-07-01T06:53:37.860Z,28
2017-07-01T06:54:18.274Z,36
2017-07-01T06:54:58.660Z,40
2017-07-01T06:55:39.058Z,44
2017-07-01T06:56:19.498Z,52
2017-07-01T06:56:59.914Z,56
2017-07-01T06:57:40.618Z,56
2017-07-01T06:58:21.077Z,64
2017-07-01T06:59:01.483Z,48
2017-07-01T06:59:41.934Z,44
2017-07-01T07:00:22.655Z,48
2017-07-01T07:01:03.078Z,48
2017-07-01T07:01:43.534Z,52
2017-07-01T07:02:24.264Z,44
2017-07-01T07:04:22.093Z,32
2017-07-01T07:05:02.552Z,36
2017-07-01T07:05:43.006Z,28
2017-07-01T07:06:23.462Z,24
2017-07-01T07:07:03.915Z,20
2017-07-01T07:07:44.369Z,20
2017-07-01T07:08:24.826Z,20
2017-07-01T07:09:05.283Z,20
2017-07-01T07:09:45.722Z,24
2017-07-01T07:10:26.175Z,20
2017-07-01T07:11:06.625Z,20
2017-07-01T07:11:47.096Z,20
2017-07-01T07:12:27.553Z,24
2017-07-01T07:13:08.001Z,24
2017-07-01T07:13:48.446Z,24
2017-07-01T07:14:28.898Z,32
2017-07-01T07:15:09.357Z,32
2017-07-01T07:15:49.805Z,28
2017-07-01T07:16:30.263Z,28
2017-07-01T07:17:10.716Z,28
2017-07-01T07:17:51.162Z,24
2017-07-01T07:18:31.611Z,24
2017-07-01T07:19:12.064Z,28
2017-07-01T07:19:52.511Z,28
2017-07-01T07:20:32.954Z,28
2017-07-01T07:21:13.436Z,28
2017-07-01T07:21:53.851Z,24
2017-07-01T07:22:34.307Z,28
2017-07-01T07:23:14.767Z,24
2017-07-01T07:23:55.238Z,28
2017-07-01T07:24:35.670Z,32
2017-07-01T07:25:16.115Z,32
2017-07-01T07:25:56.556Z,32
2017-07-01T07:26:37.015Z,28
2017-07-01T07:27:17.465Z,24
2017-07-01T07:27:57.917Z,20
2017-07-01T07:28:38.376Z,20
2017-07-01T07:29:18.837Z,20
2017-07-01T07:29:59.324Z,16
2017-07-01T07:30:39.779Z,16
2017-07-01T07:31:20.218Z,20
2017-07-01T07:32:00.680Z,20
2017-07-01T07:32:41.135Z,20
2017-07-01T07:33:21.591Z,20
2017-07-01T07:34:02.042Z,16
2017-07-01T07:34:42.499Z,16
2017-07-01T07:35:22.944Z,12
2017-07-01T07:37:40.954Z,24
2017-07-01T07:38:21.409Z,28
2017-07-01T07:39:01.877Z,28
2017-07-01T07:39:42.309Z,20
2017-07-01T07:40:22.803Z,16
2017-07-01T07:41:03.249Z,20
2017-07-01T07:41:43.730Z,20
2017-07-01T07:42:24.338Z,16
2017-07-01T07:43:04.798Z,20
2017-07-01T07:43:45.252Z,16
2017-07-01T07:44:25.698Z,20
2017-07-01T07:45:06.211Z,16
2017-07-01T07:45:46.629Z,20
2017-07-01T07:46:27.061Z,20
2017-07-01T07:47:07.507Z,20
2017-07-01T07:47:47.976Z,16
2017-07-01T07:48:28.365Z,16
2017-07-01T07:49:08.778Z,16
2017-07-01T07:49:49.181Z,12
2017-07-01T07:50:29.624Z,12
2017-07-01T07:51:10.076Z,12
2017-07-01T07:51:50.551Z,12
2017-07-01T07:52:31.017Z,12
2017-07-01T07:53:11.452Z,12
2017-07-01T07:53:51.892Z,16
2017-07-01T07:54:32.343Z,16
2017-07-01T07:55:12.794Z,16
2017-07-01T07:55:53.251Z,16
2017-07-01T07:56:33.702Z,20
2017-07-01T07:57:14.157Z,20
2017-07-01T07:57:54.617Z,20
2017-07-01T07:58:35.089Z,24
2017-07-01T07:59:15.557Z,28
2017-07-01T07:59:56.011Z,32
2017-07-01T08:00:36.473Z,28
2017-07-01T08:01:16.927Z,24
2017-07-01T08:01:57.394Z,16
2017-07-01T08:02:37.837Z,16
2017-07-01T08:03:18.295Z,16
2017-07-01T08:03:58.750Z,20
2017-07-01T08:04:39.199Z,16
2017-07-01T08:05:19.655Z,20
2017-07-01T08:06:00.113Z,24
2017-07-01T08:06:40.571Z,24
2017-07-01T08:07:21.049Z,20
2017-07-01T08:08:01.503Z,24
2017-07-01T08:08:41.947Z,24
2017-07-01T08:09:22.396Z,24
2017-07-01T08:10:02.865Z,28
2017-07-01T08:10:43.309Z,28
2017-07-01T08:11:23.761Z,24
2017-07-01T08:12:04.210Z,24
2017-07-01T08:12:44.686Z,20
2017-07-01T08:13:25.170Z,20
2017-07-01T08:14:05.629Z,24
2017-07-01T08:14:46.075Z,24
2017-07-01T08:15:26.530Z,20
2017-07-01T08:16:06.994Z,16
2017-07-01T08:16:47.440Z,16
2017-07-01T08:17:27.890Z,16
2017-07-01T08:18:08.337Z,16
2017-07-01T08:18:48.788Z,16
2017-07-01T08:19:29.251Z,16
2017-07-01T08:20:09.707Z,16
2017-07-01T08:20:50.144Z,16
2017-07-01T08:21:30.589Z,20
2017-07-01T08:22:11.054Z,16
2017-07-01T08:22:51.499Z,20
2017-07-01T08:23:31.942Z,20
2017-07-01T08:24:12.384Z,24
2017-07-01T08:24:52.856Z,24
2017-07-01T08:25:33.315Z,28
2017-07-01T08:26:13.762Z,28
2017-07-01T08:28:11.801Z,20
2017-07-01T08:28:52.242Z,16
2017-07-01T08:29:32.687Z,16
2017-07-01T08:30:13.133Z,16
2017-07-01T08:30:53.572Z,16
2017-07-01T08:31:34.046Z,16
2017-07-01T08:32:14.561Z,12
2017-07-01T08:32:54.975Z,16
2017-07-01T08:33:35.423Z,16
2017-07-01T08:34:15.881Z,12
2017-07-01T08:34:56.338Z,12
2017-07-01T08:35:36.788Z,12
2017-07-01T08:36:17.240Z,12
2017-07-01T08:36:57.696Z,12
2017-07-01T08:37:38.149Z,16
2017-07-01T08:38:18.612Z,20
2017-07-01T08:38:59.094Z,20
2017-07-01T08:39:39.536Z,20
2017-07-01T08:40:19.979Z,16
2017-07-01T08:41:00.425Z,20
2017-07-01T08:41:40.875Z,20
2017-07-01T08:42:21.382Z,20
2017-07-01T08:43:01.782Z,20
2017-07-01T08:43:42.268Z,24
2017-07-01T08:44:22.722Z,20
2017-07-01T08:45:03.175Z,24
2017-07-01T08:45:43.629Z,20
2017-07-01T08:46:24.082Z,16
2017-07-01T08:47:04.539Z,16
2017-07-01T08:47:44.999Z,16
2017-07-01T08:48:25.449Z,16
2017-07-01T08:49:05.901Z,16
2017-07-01T08:49:46.362Z,16
2017-07-01T08:50:26.809Z,20
2017-07-01T08:51:07.270Z,20
2017-07-01T08:51:47.727Z,16
2017-07-01T08:52:28.179Z,16
2017-07-01T08:53:08.613Z,20
2017-07-01T08:53:49.065Z,24
2017-07-01T08:54:29.524Z,24
2017-07-01T08:55:09.978Z,24
2017-07-01T08:55:50.429Z,24
2017-07-01T08:56:30.874Z,32
2017-07-01T08:57:11.336Z,32
2017-07-01T08:57:51.783Z,28
2017-07-01T08:58:32.238Z,32
2017-07-01T08:59:12.694Z,32
2017-07-01T08:59:53.139Z,28
2017-07-01T09:00:33.611Z,28
2017-07-01T09:01:14.067Z,28
2017-07-01T09:01:54.518Z,32
2017-07-01T09:02:34.964Z,28
2017-07-01T09:03:15.419Z,28
2017-07-01T09:03:55.854Z,32
2017-07-01T09:04:36.293Z,36
2017-07-01T09:05:16.756Z,36
2017-07-01T09:05:57.219Z,36
2017-07-01T09:06:37.650Z,32
2017-07-01T09:07:18.105Z,32
2017-07-01T09:07:58.560Z,32
2017-07-01T09:08:39.011Z,28
2017-07-01T09:09:19.471Z,24
2017-07-01T09:09:59.924Z,24
2017-07-01T09:10:40.379Z,20
2017-07-01T09:11:20.828Z,20
2017-07-01T09:12:01.292Z,20
2017-07-01T09:12:41.753Z,20
2017-07-01T09:13:22.205Z,20
2017-07-01T09:14:02.656Z,20
2017-07-01T09:14:43.109Z,20
2017-07-01T09:15:23.561Z,24
2017-07-01T09:16:04.011Z,28
2017-07-01T09:16:44.469Z,32
2017-07-01T09:17:24.918Z,40
2017-07-01T09:18:05.379Z,40
2017-07-01T09:18:45.833Z,44
2017-07-01T09:19:26.286Z,40
2017-07-01T09:20:06.734Z,40
2017-07-01T09:20:47.190Z,40
2017-07-01T09:21:27.630Z,44
2017-07-01T09:22:08.086Z,44
2017-07-01T09:22:48.539Z,52
2017-07-01T09:23:28.987Z,52
2017-07-01T09:24:09.458Z,52
2017-07-01T09:24:49.925Z,52
2017-07-01T09:25:30.388Z,56
2017-07-01T09:26:10.822Z,56
2017-07-01T09:26:51.281Z,60
2017-07-01T09:27:31.739Z,64
2017-07-01T09:28:12.184Z,64
2017-07-01T09:28:52.631Z,68
2017-07-01T09:29:33.085Z,72
2017-07-01T09:30:13.530Z,72
2017-07-01T09:30:53.979Z,76
2017-07-01T09:31:34.428Z,80
2017-07-01T09:32:14.876Z,80
2017-07-01T09:32:55.326Z,80
2017-07-01T09:33:35.781Z,84
2017-07-01T09:34:16.231Z,84
2017-07-01T09:34:56.692Z,84
2017-07-01T09:35:37.173Z,88
2017-07-01T09:36:17.621Z,96
2017-07-01T09:36:58.072Z,108
2017-07-01T09:37:38.526Z,112
2017-07-01T09:38:18.970Z,116
2017-07-01T09:38:59.438Z,124
2017-07-01T09:39:39.899Z,104
2017-07-01T09:40:20.348Z,96
2017-07-01T09:41:00.797Z,88
2017-07-01T09:41:41.244Z,84
2017-07-01T09:42:21.694Z,84
2017-07-01T09:43:02.144Z,84
2017-07-01T09:43:42.587Z,92
2017-07-01T09:44:23.043Z,104
2017-07-01T09:45:04.047Z,108
2017-07-01T09:45:45.342Z,116
2017-07-01T09:46:25.805Z,128
2017-07-01T09:47:06.279Z,120
2017-07-01T09:47:46.712Z,108
2017-07-01T09:48:27.231Z,100
2017-07-01T09:49:07.680Z,100
2017-07-01T09:49:48.132Z,112
2017-07-01T09:50:28.586Z,108
2017-07-01T09:51:09.067Z,104
2017-07-01T09:51:49.515Z,80
2017-07-01T09:52:29.959Z,92
2017-07-01T09:53:10.412Z,88
2017-07-01T09:53:50.861Z,96
2017-07-01T09:54:31.362Z,100
2017-07-01T09:55:11.808Z,104
2017-07-01T09:55:52.300Z,100
2017-07-01T09:56:32.750Z,96
2017-07-01T09:57:13.201Z,104
2017-07-01T09:57:53.647Z,100
2017-07-01T09:58:34.090Z,88